sensor_id;sensor_type;location;lat;lon;timestamp;P1;durP1;ratioP1;P2;durP2;ratioP2
37409;SDS011;23275;48.914;12.566;2023-01-29T00:01:37;14.75;;;9.55;;
37409;SDS011;23275;48.914;12.566;2023-01-29T00:04:03;17.70;;;10.10;;
37409;SDS011;23275;48.914;12.566;2023-01-29T00:06:29;16.73;;;10.05;;
37409;SDS011;23275;48.914;12.566;2023-01-29T00:08:54;14.70;;;9.23;;
37409;SDS011;23275;48.914;12.566;2023-01-29T00:11:21;15.10;;;9.20;;
37409;SDS011;23275;48.914;12.566;2023-01-29T00:13:48;14.77;;;8.50;;
37409;SDS011;23275;48.914;12.566;2023-01-29T00:16:13;14.50;;;9.20;;
37409;SDS011;23275;48.914;12.566;2023-01-29T00:18:39;14.80;;;8.65;;
37409;SDS011;23275;48.914;12.566;2023-01-29T00:21:12;15.65;;;8.32;;
37409;SDS011;23275;48.914;12.566;2023-01-29T00:23:39;12.88;;;7.82;;
37409;SDS011;23275;48.914;12.566;2023-01-29T00:26:06;12.15;;;7.55;;
37409;SDS011;23275;48.914;12.566;2023-01-29T00:28:32;12.77;;;7.90;;
37409;SDS011;23275;48.914;12.566;2023-01-29T00:30:57;12.75;;;7.18;;
37409;SDS011;23275;48.914;12.566;2023-01-29T00:33:30;9.45;;;6.35;;
37409;SDS011;23275;48.914;12.566;2023-01-29T00:35:55;10.50;;;6.75;;
37409;SDS011;23275;48.914;12.566;2023-01-29T00:38:21;9.98;;;6.32;;
37409;SDS011;23275;48.914;12.566;2023-01-29T00:40:46;9.27;;;6.50;;
37409;SDS011;23275;48.914;12.566;2023-01-29T00:43:30;12.57;;;6.60;;
37409;SDS011;23275;48.914;12.566;2023-01-29T00:46:14;11.32;;;6.00;;
37409;SDS011;23275;48.914;12.566;2023-01-29T00:48:40;9.75;;;5.80;;
37409;SDS011;23275;48.914;12.566;2023-01-29T00:51:05;12.15;;;5.82;;
37409;SDS011;23275;48.914;12.566;2023-01-29T00:53:31;9.35;;;5.78;;
37409;SDS011;23275;48.914;12.566;2023-01-29T00:55:56;10.70;;;5.43;;
37409;SDS011;23275;48.914;12.566;2023-01-29T00:58:22;8.63;;;5.22;;
37409;SDS011;23275;48.914;12.566;2023-01-29T01:00:52;8.65;;;5.53;;
37409;SDS011;23275;48.914;12.566;2023-01-29T01:03:18;9.48;;;5.43;;
37409;SDS011;23275;48.914;12.566;2023-01-29T01:05:44;9.25;;;4.97;;
37409;SDS011;23275;48.914;12.566;2023-01-29T01:08:10;8.75;;;5.65;;
37409;SDS011;23275;48.914;12.566;2023-01-29T01:10:58;8.82;;;5.22;;
37409;SDS011;23275;48.914;12.566;2023-01-29T01:13:25;7.07;;;4.90;;
37409;SDS011;23275;48.914;12.566;2023-01-29T01:15:51;8.35;;;4.97;;
37409;SDS011;23275;48.914;12.566;2023-01-29T01:18:16;10.15;;;5.22;;
37409;SDS011;23275;48.914;12.566;2023-01-29T01:20:44;6.65;;;4.15;;
37409;SDS011;23275;48.914;12.566;2023-01-29T01:23:16;8.75;;;4.82;;
37409;SDS011;23275;48.914;12.566;2023-01-29T01:25:44;13.75;;;4.75;;
37409;SDS011;23275;48.914;12.566;2023-01-29T01:28:10;7.55;;;4.80;;
37409;SDS011;23275;48.914;12.566;2023-01-29T01:30:36;6.75;;;4.38;;
37409;SDS011;23275;48.914;12.566;2023-01-29T01:33:03;7.03;;;4.35;;
37409;SDS011;23275;48.914;12.566;2023-01-29T01:35:28;7.00;;;4.13;;
37409;SDS011;23275;48.914;12.566;2023-01-29T01:37:54;6.13;;;3.97;;
37409;SDS011;23275;48.914;12.566;2023-01-29T01:40:20;7.10;;;3.38;;
37409;SDS011;23275;48.914;12.566;2023-01-29T01:42:48;6.95;;;4.20;;
37409;SDS011;23275;48.914;12.566;2023-01-29T01:47:57;8.10;;;3.65;;
37409;SDS011;23275;48.914;12.566;2023-01-29T01:50:40;6.00;;;3.97;;
37409;SDS011;23275;48.914;12.566;2023-01-29T01:53:14;6.22;;;3.90;;
37409;SDS011;23275;48.914;12.566;2023-01-29T01:55:44;6.63;;;3.70;;
37409;SDS011;23275;48.914;12.566;2023-01-29T01:58:16;6.57;;;3.90;;
37409;SDS011;23275;48.914;12.566;2023-01-29T02:00:47;8.38;;;4.10;;
37409;SDS011;23275;48.914;12.566;2023-01-29T02:03:12;7.90;;;4.40;;
37409;SDS011;23275;48.914;12.566;2023-01-29T02:05:57;7.50;;;4.22;;
37409;SDS011;23275;48.914;12.566;2023-01-29T02:08:48;6.60;;;3.85;;
37409;SDS011;23275;48.914;12.566;2023-01-29T02:11:37;5.78;;;3.47;;
37409;SDS011;23275;48.914;12.566;2023-01-29T02:14:03;6.13;;;3.80;;
37409;SDS011;23275;48.914;12.566;2023-01-29T02:16:29;8.45;;;4.80;;
37409;SDS011;23275;48.914;12.566;2023-01-29T02:18:54;7.28;;;4.03;;
37409;SDS011;23275;48.914;12.566;2023-01-29T02:24:10;5.22;;;3.00;;
37409;SDS011;23275;48.914;12.566;2023-01-29T02:26:52;5.28;;;2.95;;
37409;SDS011;23275;48.914;12.566;2023-01-29T02:46:12;4.40;;;2.15;;
37409;SDS011;23275;48.914;12.566;2023-01-29T02:48:57;5.90;;;2.22;;
37409;SDS011;23275;48.914;12.566;2023-01-29T02:51:33;3.83;;;1.77;;
37409;SDS011;23275;48.914;12.566;2023-01-29T02:54:24;3.00;;;1.65;;
37409;SDS011;23275;48.914;12.566;2023-01-29T02:59:39;3.45;;;1.50;;
37409;SDS011;23275;48.914;12.566;2023-01-29T03:03:11;3.53;;;1.63;;
37409;SDS011;23275;48.914;12.566;2023-01-29T03:05:36;3.15;;;1.40;;
37409;SDS011;23275;48.914;12.566;2023-01-29T03:08:17;3.17;;;1.63;;
37409;SDS011;23275;48.914;12.566;2023-01-29T03:11:10;3.42;;;1.45;;
37409;SDS011;23275;48.914;12.566;2023-01-29T03:16:47;2.38;;;1.52;;
37409;SDS011;23275;48.914;12.566;2023-01-29T03:19:12;3.80;;;1.42;;
37409;SDS011;23275;48.914;12.566;2023-01-29T03:22:08;2.92;;;1.35;;
37409;SDS011;23275;48.914;12.566;2023-01-29T03:24:41;3.38;;;1.30;;
37409;SDS011;23275;48.914;12.566;2023-01-29T03:27:43;3.28;;;1.40;;
37409;SDS011;23275;48.914;12.566;2023-01-29T03:30:32;2.72;;;1.40;;
37409;SDS011;23275;48.914;12.566;2023-01-29T03:33:21;3.05;;;1.50;;
37409;SDS011;23275;48.914;12.566;2023-01-29T03:35:51;3.03;;;1.70;;
37409;SDS011;23275;48.914;12.566;2023-01-29T03:38:20;3.95;;;1.70;;
37409;SDS011;23275;48.914;12.566;2023-01-29T03:40:53;2.95;;;1.70;;
37409;SDS011;23275;48.914;12.566;2023-01-29T03:45:53;2.85;;;1.45;;
37409;SDS011;23275;48.914;12.566;2023-01-29T03:48:39;3.80;;;1.60;;
37409;SDS011;23275;48.914;12.566;2023-01-29T03:53:50;2.78;;;1.67;;
37409;SDS011;23275;48.914;12.566;2023-01-29T03:57:09;3.55;;;1.45;;
37409;SDS011;23275;48.914;12.566;2023-01-29T04:04:43;3.95;;;2.00;;
37409;SDS011;23275;48.914;12.566;2023-01-29T04:07:11;3.28;;;1.73;;
37409;SDS011;23275;48.914;12.566;2023-01-29T04:09:47;4.30;;;1.53;;
37409;SDS011;23275;48.914;12.566;2023-01-29T04:12:24;3.45;;;1.60;;
37409;SDS011;23275;48.914;12.566;2023-01-29T04:14:53;3.53;;;1.90;;
37409;SDS011;23275;48.914;12.566;2023-01-29T04:17:30;3.33;;;1.67;;
37409;SDS011;23275;48.914;12.566;2023-01-29T04:19:59;3.10;;;1.65;;
37409;SDS011;23275;48.914;12.566;2023-01-29T04:22:33;3.33;;;1.50;;
37409;SDS011;23275;48.914;12.566;2023-01-29T04:25:07;2.92;;;1.83;;
37409;SDS011;23275;48.914;12.566;2023-01-29T04:30:46;3.58;;;1.80;;
37409;SDS011;23275;48.914;12.566;2023-01-29T04:36:40;3.55;;;1.80;;
37409;SDS011;23275;48.914;12.566;2023-01-29T04:39:19;3.38;;;1.90;;
37409;SDS011;23275;48.914;12.566;2023-01-29T04:45:20;4.00;;;1.90;;
37409;SDS011;23275;48.914;12.566;2023-01-29T04:50:05;5.85;;;2.30;;
37409;SDS011;23275;48.914;12.566;2023-01-29T04:55:47;3.70;;;1.95;;
37409;SDS011;23275;48.914;12.566;2023-01-29T04:58:20;3.85;;;1.85;;
37409;SDS011;23275;48.914;12.566;2023-01-29T05:03:23;3.88;;;2.00;;
37409;SDS011;23275;48.914;12.566;2023-01-29T05:05:50;5.25;;;2.17;;
37409;SDS011;23275;48.914;12.566;2023-01-29T05:08:20;3.83;;;1.77;;
37409;SDS011;23275;48.914;12.566;2023-01-29T05:10:48;3.03;;;1.63;;
37409;SDS011;23275;48.914;12.566;2023-01-29T05:13:15;3.63;;;2.10;;
37409;SDS011;23275;48.914;12.566;2023-01-29T05:15:47;4.15;;;1.92;;
37409;SDS011;23275;48.914;12.566;2023-01-29T05:18:18;3.40;;;2.10;;
37409;SDS011;23275;48.914;12.566;2023-01-29T05:20:44;5.63;;;2.30;;
37409;SDS011;23275;48.914;12.566;2023-01-29T05:23:15;5.00;;;2.15;;
37409;SDS011;23275;48.914;12.566;2023-01-29T05:28:08;3.70;;;2.15;;
37409;SDS011;23275;48.914;12.566;2023-01-29T05:30:46;4.22;;;1.85;;
37409;SDS011;23275;48.914;12.566;2023-01-29T05:35:47;3.95;;;1.77;;
37409;SDS011;23275;48.914;12.566;2023-01-29T05:38:14;3.78;;;1.83;;
37409;SDS011;23275;48.914;12.566;2023-01-29T05:40:40;3.42;;;1.92;;
37409;SDS011;23275;48.914;12.566;2023-01-29T05:43:17;4.72;;;2.55;;
37409;SDS011;23275;48.914;12.566;2023-01-29T05:45:51;4.78;;;2.25;;
37409;SDS011;23275;48.914;12.566;2023-01-29T05:48:18;3.38;;;2.13;;
37409;SDS011;23275;48.914;12.566;2023-01-29T05:50:44;3.65;;;2.33;;
37409;SDS011;23275;48.914;12.566;2023-01-29T05:53:09;3.22;;;1.95;;
37409;SDS011;23275;48.914;12.566;2023-01-29T05:55:35;4.97;;;2.28;;
37409;SDS011;23275;48.914;12.566;2023-01-29T05:58:00;4.28;;;2.38;;
37409;SDS011;23275;48.914;12.566;2023-01-29T06:00:26;4.10;;;2.28;;
37409;SDS011;23275;48.914;12.566;2023-01-29T06:02:52;4.50;;;1.88;;
37409;SDS011;23275;48.914;12.566;2023-01-29T06:05:17;4.50;;;2.25;;
37409;SDS011;23275;48.914;12.566;2023-01-29T06:07:43;4.07;;;2.20;;
37409;SDS011;23275;48.914;12.566;2023-01-29T06:10:12;4.85;;;2.20;;
37409;SDS011;23275;48.914;12.566;2023-01-29T06:12:39;4.78;;;2.03;;
37409;SDS011;23275;48.914;12.566;2023-01-29T06:15:05;3.83;;;2.25;;
37409;SDS011;23275;48.914;12.566;2023-01-29T06:17:31;3.95;;;2.15;;
37409;SDS011;23275;48.914;12.566;2023-01-29T06:19:57;4.35;;;2.30;;
37409;SDS011;23275;48.914;12.566;2023-01-29T06:22:23;8.05;;;2.65;;
37409;SDS011;23275;48.914;12.566;2023-01-29T06:24:48;2.90;;;1.80;;
37409;SDS011;23275;48.914;12.566;2023-01-29T06:27:14;4.95;;;2.45;;
37409;SDS011;23275;48.914;12.566;2023-01-29T06:29:39;3.78;;;2.30;;
37409;SDS011;23275;48.914;12.566;2023-01-29T06:32:05;4.93;;;2.67;;
37409;SDS011;23275;48.914;12.566;2023-01-29T06:34:30;5.32;;;2.53;;
37409;SDS011;23275;48.914;12.566;2023-01-29T06:36:56;4.60;;;2.42;;
37409;SDS011;23275;48.914;12.566;2023-01-29T06:39:21;5.22;;;2.33;;
37409;SDS011;23275;48.914;12.566;2023-01-29T06:41:47;4.65;;;2.28;;
37409;SDS011;23275;48.914;12.566;2023-01-29T06:44:12;3.67;;;2.20;;
37409;SDS011;23275;48.914;12.566;2023-01-29T06:46:38;4.20;;;2.22;;
37409;SDS011;23275;48.914;12.566;2023-01-29T06:49:04;3.47;;;2.00;;
37409;SDS011;23275;48.914;12.566;2023-01-29T06:51:29;4.05;;;2.15;;
37409;SDS011;23275;48.914;12.566;2023-01-29T06:53:55;5.63;;;2.38;;
37409;SDS011;23275;48.914;12.566;2023-01-29T06:56:21;4.82;;;2.58;;
37409;SDS011;23275;48.914;12.566;2023-01-29T06:58:48;5.40;;;2.38;;
37409;SDS011;23275;48.914;12.566;2023-01-29T07:01:13;3.83;;;2.38;;
37409;SDS011;23275;48.914;12.566;2023-01-29T07:03:39;6.32;;;2.30;;
37409;SDS011;23275;48.914;12.566;2023-01-29T07:06:08;4.25;;;2.42;;
37409;SDS011;23275;48.914;12.566;2023-01-29T07:08:37;5.38;;;2.45;;
37409;SDS011;23275;48.914;12.566;2023-01-29T07:11:03;4.63;;;2.65;;
37409;SDS011;23275;48.914;12.566;2023-01-29T07:13:30;5.18;;;2.75;;
37409;SDS011;23275;48.914;12.566;2023-01-29T07:15:59;5.47;;;2.50;;
37409;SDS011;23275;48.914;12.566;2023-01-29T07:18:26;7.13;;;3.90;;
37409;SDS011;23275;48.914;12.566;2023-01-29T07:20:52;12.73;;;5.63;;
37409;SDS011;23275;48.914;12.566;2023-01-29T07:23:17;6.85;;;3.67;;
37409;SDS011;23275;48.914;12.566;2023-01-29T07:25:43;4.47;;;2.78;;
37409;SDS011;23275;48.914;12.566;2023-01-29T07:28:09;5.07;;;2.70;;
37409;SDS011;23275;48.914;12.566;2023-01-29T07:30:34;6.97;;;2.60;;
37409;SDS011;23275;48.914;12.566;2023-01-29T07:33:04;5.40;;;2.80;;
37409;SDS011;23275;48.914;12.566;2023-01-29T07:37:59;4.45;;;2.83;;
37409;SDS011;23275;48.914;12.566;2023-01-29T07:40:25;11.18;;;2.90;;
37409;SDS011;23275;48.914;12.566;2023-01-29T07:42:50;6.18;;;2.97;;
37409;SDS011;23275;48.914;12.566;2023-01-29T07:45:22;4.72;;;2.72;;
37409;SDS011;23275;48.914;12.566;2023-01-29T07:47:50;3.97;;;2.20;;
37409;SDS011;23275;48.914;12.566;2023-01-29T07:50:17;5.18;;;2.90;;
37409;SDS011;23275;48.914;12.566;2023-01-29T07:52:42;6.82;;;2.90;;
37409;SDS011;23275;48.914;12.566;2023-01-29T07:55:08;5.40;;;2.67;;
37409;SDS011;23275;48.914;12.566;2023-01-29T07:57:34;4.60;;;2.78;;
37409;SDS011;23275;48.914;12.566;2023-01-29T07:59:59;5.78;;;2.45;;
37409;SDS011;23275;48.914;12.566;2023-01-29T08:02:25;3.70;;;2.53;;
37409;SDS011;23275;48.914;12.566;2023-01-29T08:04:50;4.63;;;2.70;;
37409;SDS011;23275;48.914;12.566;2023-01-29T08:07:16;4.15;;;2.63;;
37409;SDS011;23275;48.914;12.566;2023-01-29T08:09:41;4.60;;;2.45;;
37409;SDS011;23275;48.914;12.566;2023-01-29T08:12:07;5.63;;;2.78;;
37409;SDS011;23275;48.914;12.566;2023-01-29T08:14:32;4.68;;;2.75;;
37409;SDS011;23275;48.914;12.566;2023-01-29T08:16:58;4.43;;;2.70;;
37409;SDS011;23275;48.914;12.566;2023-01-29T08:19:23;5.18;;;2.75;;
37409;SDS011;23275;48.914;12.566;2023-01-29T08:21:49;5.50;;;2.72;;
37409;SDS011;23275;48.914;12.566;2023-01-29T08:24:14;5.15;;;2.95;;
37409;SDS011;23275;48.914;12.566;2023-01-29T08:26:40;7.60;;;3.17;;
37409;SDS011;23275;48.914;12.566;2023-01-29T08:29:06;6.05;;;3.38;;
37409;SDS011;23275;48.914;12.566;2023-01-29T08:31:31;8.50;;;3.65;;
37409;SDS011;23275;48.914;12.566;2023-01-29T08:33:57;6.53;;;3.30;;
37409;SDS011;23275;48.914;12.566;2023-01-29T08:36:23;5.07;;;3.28;;
37409;SDS011;23275;48.914;12.566;2023-01-29T08:38:49;5.18;;;3.08;;
37409;SDS011;23275;48.914;12.566;2023-01-29T08:41:14;6.75;;;3.67;;
37409;SDS011;23275;48.914;12.566;2023-01-29T08:43:40;6.82;;;3.28;;
37409;SDS011;23275;48.914;12.566;2023-01-29T08:46:06;6.60;;;3.40;;
37409;SDS011;23275;48.914;12.566;2023-01-29T08:48:31;6.55;;;3.25;;
37409;SDS011;23275;48.914;12.566;2023-01-29T08:50:58;7.07;;;3.65;;
37409;SDS011;23275;48.914;12.566;2023-01-29T08:53:25;7.82;;;4.47;;
37409;SDS011;23275;48.914;12.566;2023-01-29T08:55:51;5.57;;;3.75;;
37409;SDS011;23275;48.914;12.566;2023-01-29T08:58:17;6.72;;;3.83;;
37409;SDS011;23275;48.914;12.566;2023-01-29T09:00:43;10.57;;;4.43;;
37409;SDS011;23275;48.914;12.566;2023-01-29T09:03:08;6.60;;;3.38;;
37409;SDS011;23275;48.914;12.566;2023-01-29T09:05:35;7.88;;;3.83;;
37409;SDS011;23275;48.914;12.566;2023-01-29T09:08:03;6.00;;;3.15;;
37409;SDS011;23275;48.914;12.566;2023-01-29T09:10:29;11.98;;;6.93;;
37409;SDS011;23275;48.914;12.566;2023-01-29T09:12:55;4.93;;;3.63;;
37409;SDS011;23275;48.914;12.566;2023-01-29T09:15:20;4.80;;;3.17;;
37409;SDS011;23275;48.914;12.566;2023-01-29T09:17:46;5.78;;;3.45;;
37409;SDS011;23275;48.914;12.566;2023-01-29T09:20:13;6.57;;;3.72;;
37409;SDS011;23275;48.914;12.566;2023-01-29T09:22:39;5.95;;;3.78;;
37409;SDS011;23275;48.914;12.566;2023-01-29T09:25:05;5.32;;;3.60;;
37409;SDS011;23275;48.914;12.566;2023-01-29T09:27:31;5.82;;;3.60;;
37409;SDS011;23275;48.914;12.566;2023-01-29T09:29:56;7.20;;;4.32;;
37409;SDS011;23275;48.914;12.566;2023-01-29T09:32:22;5.68;;;3.35;;
37409;SDS011;23275;48.914;12.566;2023-01-29T09:34:48;6.65;;;4.07;;
37409;SDS011;23275;48.914;12.566;2023-01-29T09:37:13;4.82;;;3.10;;
37409;SDS011;23275;48.914;12.566;2023-01-29T09:39:41;9.23;;;5.32;;
37409;SDS011;23275;48.914;12.566;2023-01-29T09:42:29;7.43;;;3.80;;
37409;SDS011;23275;48.914;12.566;2023-01-29T09:47:37;5.40;;;3.55;;
37409;SDS011;23275;48.914;12.566;2023-01-29T09:50:20;5.35;;;3.95;;
37409;SDS011;23275;48.914;12.566;2023-01-29T09:53:01;6.28;;;3.42;;
37409;SDS011;23275;48.914;12.566;2023-01-29T09:55:38;6.00;;;4.00;;
37409;SDS011;23275;48.914;12.566;2023-01-29T09:58:33;6.78;;;3.85;;
37409;SDS011;23275;48.914;12.566;2023-01-29T10:04:12;5.78;;;3.80;;
37409;SDS011;23275;48.914;12.566;2023-01-29T10:09:33;4.88;;;3.08;;
37409;SDS011;23275;48.914;12.566;2023-01-29T10:25:25;5.20;;;3.78;;
37409;SDS011;23275;48.914;12.566;2023-01-29T10:27:52;8.38;;;4.88;;
37409;SDS011;23275;48.914;12.566;2023-01-29T10:30:35;6.53;;;4.38;;
37409;SDS011;23275;48.914;12.566;2023-01-29T10:33:04;6.88;;;3.72;;
37409;SDS011;23275;48.914;12.566;2023-01-29T10:35:34;8.85;;;5.07;;
37409;SDS011;23275;48.914;12.566;2023-01-29T10:38:14;5.57;;;3.35;;
37409;SDS011;23275;48.914;12.566;2023-01-29T10:50:30;7.38;;;4.55;;
37409;SDS011;23275;48.914;12.566;2023-01-29T10:55:41;6.13;;;4.13;;
37409;SDS011;23275;48.914;12.566;2023-01-29T11:00:39;7.00;;;3.70;;
37409;SDS011;23275;48.914;12.566;2023-01-29T11:03:15;7.85;;;4.45;;
37409;SDS011;23275;48.914;12.566;2023-01-29T11:05:50;6.07;;;4.30;;
37409;SDS011;23275;48.914;12.566;2023-01-29T11:08:26;5.35;;;3.55;;
37409;SDS011;23275;48.914;12.566;2023-01-29T11:14:11;6.30;;;4.40;;
37409;SDS011;23275;48.914;12.566;2023-01-29T11:16:45;7.18;;;4.35;;
37409;SDS011;23275;48.914;12.566;2023-01-29T11:19:12;6.82;;;4.28;;
37409;SDS011;23275;48.914;12.566;2023-01-29T11:21:57;7.20;;;3.95;;
37409;SDS011;23275;48.914;12.566;2023-01-29T11:24:25;9.50;;;4.55;;
37409;SDS011;23275;48.914;12.566;2023-01-29T11:26:53;5.93;;;3.97;;
37409;SDS011;23275;48.914;12.566;2023-01-29T11:35:46;19.05;;;10.45;;
37409;SDS011;23275;48.914;12.566;2023-01-29T11:37:41;16.17;;;9.73;;
37409;SDS011;23275;48.914;12.566;2023-01-29T11:45:37;8.70;;;5.55;;
37409;SDS011;23275;48.914;12.566;2023-01-29T11:48:04;8.13;;;4.75;;
37409;SDS011;23275;48.914;12.566;2023-01-29T11:50:52;8.45;;;5.15;;
37409;SDS011;23275;48.914;12.566;2023-01-29T11:53:22;9.18;;;5.82;;
37409;SDS011;23275;48.914;12.566;2023-01-29T11:56:06;7.85;;;5.25;;
37409;SDS011;23275;48.914;12.566;2023-01-29T11:58:42;10.52;;;6.00;;
37409;SDS011;23275;48.914;12.566;2023-01-29T12:01:09;7.57;;;5.18;;
37409;SDS011;23275;48.914;12.566;2023-01-29T12:03:36;7.25;;;4.50;;
37409;SDS011;23275;48.914;12.566;2023-01-29T12:06:13;7.30;;;4.90;;
37409;SDS011;23275;48.914;12.566;2023-01-29T12:08:54;7.93;;;4.93;;
37409;SDS011;23275;48.914;12.566;2023-01-29T12:11:29;7.28;;;4.80;;
37409;SDS011;23275;48.914;12.566;2023-01-29T12:13:58;7.78;;;5.07;;
37409;SDS011;23275;48.914;12.566;2023-01-29T12:16:27;8.90;;;6.40;;
37409;SDS011;23275;48.914;12.566;2023-01-29T12:19:33;7.97;;;4.97;;
37409;SDS011;23275;48.914;12.566;2023-01-29T12:21:58;7.88;;;5.32;;
37409;SDS011;23275;48.914;12.566;2023-01-29T12:24:32;9.55;;;4.93;;
37409;SDS011;23275;48.914;12.566;2023-01-29T12:27:13;8.98;;;4.93;;
37409;SDS011;23275;48.914;12.566;2023-01-29T12:29:59;9.13;;;5.13;;
37409;SDS011;23275;48.914;12.566;2023-01-29T12:32:56;8.15;;;5.88;;
37409;SDS011;23275;48.914;12.566;2023-01-29T12:35:37;20.88;;;11.05;;
37409;SDS011;23275;48.914;12.566;2023-01-29T12:40:46;9.93;;;6.32;;
37409;SDS011;23275;48.914;12.566;2023-01-29T12:43:31;11.90;;;6.93;;
37409;SDS011;23275;48.914;12.566;2023-01-29T12:46:25;14.20;;;7.88;;
37409;SDS011;23275;48.914;12.566;2023-01-29T12:48:54;11.27;;;7.25;;
37409;SDS011;23275;48.914;12.566;2023-01-29T12:51:24;10.20;;;5.55;;
37409;SDS011;23275;48.914;12.566;2023-01-29T12:53:58;8.45;;;5.55;;
37409;SDS011;23275;48.914;12.566;2023-01-29T12:56:41;11.35;;;6.03;;
37409;SDS011;23275;48.914;12.566;2023-01-29T12:59:27;10.32;;;5.88;;
37409;SDS011;23275;48.914;12.566;2023-01-29T13:04:56;10.00;;;6.30;;
37409;SDS011;23275;48.914;12.566;2023-01-29T13:07:29;9.55;;;6.47;;
37409;SDS011;23275;48.914;12.566;2023-01-29T13:10:00;10.20;;;6.90;;
37409;SDS011;23275;48.914;12.566;2023-01-29T13:12:32;9.32;;;5.80;;
37409;SDS011;23275;48.914;12.566;2023-01-29T13:15:02;9.07;;;5.63;;
37409;SDS011;23275;48.914;12.566;2023-01-29T13:17:38;8.38;;;4.82;;
37409;SDS011;23275;48.914;12.566;2023-01-29T13:20:18;10.48;;;5.63;;
37409;SDS011;23275;48.914;12.566;2023-01-29T13:22:58;8.37;;;5.37;;
37409;SDS011;23275;48.914;12.566;2023-01-29T13:25:30;9.70;;;5.68;;
37409;SDS011;23275;48.914;12.566;2023-01-29T13:27:55;8.50;;;5.70;;
37409;SDS011;23275;48.914;12.566;2023-01-29T13:30:25;9.18;;;5.22;;
37409;SDS011;23275;48.914;12.566;2023-01-29T13:32:56;12.05;;;6.05;;
37409;SDS011;23275;48.914;12.566;2023-01-29T13:35:33;8.63;;;5.60;;
37409;SDS011;23275;48.914;12.566;2023-01-29T13:38:05;11.55;;;7.45;;
37409;SDS011;23275;48.914;12.566;2023-01-29T13:40:49;12.60;;;6.70;;
37409;SDS011;23275;48.914;12.566;2023-01-29T13:43:18;10.30;;;6.15;;
37409;SDS011;23275;48.914;12.566;2023-01-29T13:45:46;10.65;;;5.93;;
37409;SDS011;23275;48.914;12.566;2023-01-29T13:48:28;8.40;;;5.63;;
37409;SDS011;23275;48.914;12.566;2023-01-29T13:50:59;8.73;;;5.88;;
37409;SDS011;23275;48.914;12.566;2023-01-29T13:53:27;11.38;;;5.93;;
37409;SDS011;23275;48.914;12.566;2023-01-29T13:58:54;10.32;;;6.68;;
37409;SDS011;23275;48.914;12.566;2023-01-29T14:06:50;11.13;;;6.13;;
37409;SDS011;23275;48.914;12.566;2023-01-29T14:12:01;8.88;;;5.47;;
37409;SDS011;23275;48.914;12.566;2023-01-29T14:17:14;12.57;;;6.15;;
37409;SDS011;23275;48.914;12.566;2023-01-29T14:19:50;10.00;;;5.93;;
37409;SDS011;23275;48.914;12.566;2023-01-29T14:22:20;9.63;;;5.28;;
37409;SDS011;23275;48.914;12.566;2023-01-29T14:24:54;8.27;;;5.85;;
37409;SDS011;23275;48.914;12.566;2023-01-29T14:27:24;9.85;;;6.15;;
37409;SDS011;23275;48.914;12.566;2023-01-29T14:29:50;10.40;;;6.60;;
37409;SDS011;23275;48.914;12.566;2023-01-29T14:32:22;10.00;;;6.25;;
37409;SDS011;23275;48.914;12.566;2023-01-29T14:34:51;12.65;;;6.38;;
37409;SDS011;23275;48.914;12.566;2023-01-29T14:37:38;9.02;;;5.07;;
37409;SDS011;23275;48.914;12.566;2023-01-29T14:40:13;9.10;;;5.47;;
37409;SDS011;23275;48.914;12.566;2023-01-29T14:45:28;9.73;;;5.82;;
37409;SDS011;23275;48.914;12.566;2023-01-29T14:53:00;8.57;;;5.63;;
37409;SDS011;23275;48.914;12.566;2023-01-29T14:58:40;11.05;;;5.70;;
37409;SDS011;23275;48.914;12.566;2023-01-29T15:01:29;8.23;;;5.88;;
37409;SDS011;23275;48.914;12.566;2023-01-29T15:04:03;9.75;;;5.72;;
37409;SDS011;23275;48.914;12.566;2023-01-29T15:06:45;8.68;;;5.57;;
37409;SDS011;23275;48.914;12.566;2023-01-29T15:09:16;8.55;;;5.55;;
37409;SDS011;23275;48.914;12.566;2023-01-29T15:14:40;9.13;;;5.35;;
37409;SDS011;23275;48.914;12.566;2023-01-29T15:17:32;9.48;;;5.68;;
37409;SDS011;23275;48.914;12.566;2023-01-29T15:20:42;10.00;;;5.65;;
37409;SDS011;23275;48.914;12.566;2023-01-29T15:23:02;11.45;;;6.32;;
37409;SDS011;23275;48.914;12.566;2023-01-29T15:25:47;10.20;;;6.03;;
37409;SDS011;23275;48.914;12.566;2023-01-29T15:28:16;9.27;;;5.45;;
37409;SDS011;23275;48.914;12.566;2023-01-29T15:30:42;7.75;;;5.28;;
37409;SDS011;23275;48.914;12.566;2023-01-29T15:33:09;9.30;;;5.43;;
37409;SDS011;23275;48.914;12.566;2023-01-29T15:35:41;7.65;;;5.00;;
37409;SDS011;23275;48.914;12.566;2023-01-29T15:38:14;9.57;;;5.80;;
37409;SDS011;23275;48.914;12.566;2023-01-29T15:40:40;7.90;;;5.47;;
37409;SDS011;23275;48.914;12.566;2023-01-29T15:43:22;11.48;;;5.95;;
37409;SDS011;23275;48.914;12.566;2023-01-29T15:45:59;10.90;;;6.15;;
37409;SDS011;23275;48.914;12.566;2023-01-29T15:48:34;8.32;;;5.63;;
37409;SDS011;23275;48.914;12.566;2023-01-29T15:51:04;11.60;;;6.38;;
37409;SDS011;23275;48.914;12.566;2023-01-29T15:53:41;8.52;;;6.00;;
37409;SDS011;23275;48.914;12.566;2023-01-29T15:56:14;33.58;;;19.38;;
37409;SDS011;23275;48.914;12.566;2023-01-29T15:58:52;19.88;;;13.05;;
37409;SDS011;23275;48.914;12.566;2023-01-29T16:01:19;13.68;;;8.73;;
37409;SDS011;23275;48.914;12.566;2023-01-29T16:03:47;10.73;;;6.88;;
37409;SDS011;23275;48.914;12.566;2023-01-29T16:06:14;10.30;;;6.45;;
37409;SDS011;23275;48.914;12.566;2023-01-29T16:08:41;10.95;;;6.55;;
37409;SDS011;23275;48.914;12.566;2023-01-29T16:11:10;11.00;;;6.72;;
37409;SDS011;23275;48.914;12.566;2023-01-29T16:13:38;8.50;;;5.82;;
37409;SDS011;23275;48.914;12.566;2023-01-29T16:18:40;8.80;;;5.82;;
37409;SDS011;23275;48.914;12.566;2023-01-29T16:21:22;9.88;;;6.07;;
37409;SDS011;23275;48.914;12.566;2023-01-29T16:26:27;9.90;;;6.05;;
37409;SDS011;23275;48.914;12.566;2023-01-29T16:29:06;8.82;;;5.78;;
37409;SDS011;23275;48.914;12.566;2023-01-29T16:31:34;13.18;;;7.78;;
37409;SDS011;23275;48.914;12.566;2023-01-29T16:34:14;9.65;;;5.70;;
37409;SDS011;23275;48.914;12.566;2023-01-29T16:36:54;11.48;;;5.55;;
37409;SDS011;23275;48.914;12.566;2023-01-29T16:39:24;10.70;;;6.20;;
37409;SDS011;23275;48.914;12.566;2023-01-29T16:44:39;9.13;;;5.65;;
37409;SDS011;23275;48.914;12.566;2023-01-29T16:47:23;8.90;;;6.03;;
37409;SDS011;23275;48.914;12.566;2023-01-29T16:52:19;8.88;;;5.47;;
37409;SDS011;23275;48.914;12.566;2023-01-29T16:54:58;8.80;;;5.78;;
37409;SDS011;23275;48.914;12.566;2023-01-29T16:57:36;9.02;;;5.60;;
37409;SDS011;23275;48.914;12.566;2023-01-29T17:00:05;9.27;;;5.68;;
37409;SDS011;23275;48.914;12.566;2023-01-29T17:02:38;10.98;;;6.05;;
37409;SDS011;23275;48.914;12.566;2023-01-29T17:05:05;10.07;;;5.80;;
37409;SDS011;23275;48.914;12.566;2023-01-29T17:07:34;10.48;;;5.88;;
37409;SDS011;23275;48.914;12.566;2023-01-29T17:10:02;8.88;;;5.43;;
37409;SDS011;23275;48.914;12.566;2023-01-29T17:12:30;10.45;;;6.20;;
37409;SDS011;23275;48.914;12.566;2023-01-29T17:15:02;8.43;;;5.32;;
37409;SDS011;23275;48.914;12.566;2023-01-29T17:17:49;8.68;;;5.65;;
37409;SDS011;23275;48.914;12.566;2023-01-29T17:20:14;11.60;;;6.22;;
37409;SDS011;23275;48.914;12.566;2023-01-29T17:22:41;10.25;;;6.38;;
37409;SDS011;23275;48.914;12.566;2023-01-29T17:25:08;10.63;;;6.18;;
37409;SDS011;23275;48.914;12.566;2023-01-29T17:27:41;9.27;;;5.55;;
37409;SDS011;23275;48.914;12.566;2023-01-29T17:30:12;9.73;;;6.30;;
37409;SDS011;23275;48.914;12.566;2023-01-29T17:35:05;9.52;;;5.85;;
37409;SDS011;23275;48.914;12.566;2023-01-29T17:37:32;10.70;;;6.32;;